Data Viewer
| City | State | Eastern Time | Source | Daily Temp Max | Daily Temp Min | Daily Dew Point Max | Daily Dew Point Min | Daily RH Max | Daily Min RH | Daily BP Max | Daily BP Min | Daily Precip | Daily Wind Max | Daily Wind Max Dir |
|---|---|---|---|---|---|---|---|---|---|---|---|---|---|---|
| Greenwich | NJ | 2026-04-04 | Mesonet | 81 | 50 | 68 | 50 | 100 | 55 | 0.00 | 22 | E | ||
| Greenwich | NJ | 2026-04-20 | Mesonet | 56 | 33 | 44 | 21 | 97 | 30 | 0.00 | 22 | N | ||
| Greenwich | NJ | 2026-05-03 | Mesonet | 61 | 43 | 39 | 27 | 78 | 30 | 0.00 | 25 | NW | ||
| Greenwich | NJ | 2026-05-02 | Mesonet | 61 | 46 | 48 | 33 | 97 | 39 | 0.00 | 16 | NW | ||
| Greenwich | NJ | 2026-05-01 | Mesonet | 65 | 39 | 48 | 34 | 98 | 38 | 0.00 | 16 | NW | ||
| Greenwich | NJ | 2026-04-30 | Mesonet | 67 | 48 | 54 | 41 | 100 | 51 | 0.29 | 21 | NNW | ||
| Greenwich | NJ | 2026-04-29 | Mesonet | 61 | 49 | 49 | 41 | 98 | 53 | 0.40 | 17 | ESE | ||
| Greenwich | NJ | 2026-04-28 | Mesonet | 62 | 37 | 51 | 37 | 100 | 47 | 0.00 | 11 | SSW | ||
| Greenwich | NJ | 2026-04-27 | Mesonet | 71 | 36 | 52 | 36 | 100 | 41 | 0.00 | 16 | S | ||
| Greenwich | NJ | 2026-04-26 | Mesonet | 55 | 40 | 46 | 40 | 99 | 69 | 0.03 | 20 | NE | ||
| Greenwich | NJ | 2026-04-25 | Mesonet | 55 | 44 | 49 | 39 | 98 | 63 | 0.27 | 20 | E | ||
| Greenwich | NJ | 2026-04-24 | Mesonet | 78 | 48 | 55 | 37 | 100 | 30 | 0.00 | 17 | SSE | ||
| Greenwich | NJ | 2026-04-23 | Mesonet | 77 | 42 | 58 | 42 | 100 | 41 | 0.00 | 15 | W | ||
| Greenwich | NJ | 2026-04-22 | Mesonet | 69 | 48 | 54 | 39 | 91 | 55 | 0.00 | 20 | SW | ||
| Greenwich | NJ | 2026-04-21 | Mesonet | 56 | 26 | 40 | 18 | 92 | 33 | 0.00 | 17 | SSW | ||
| Greenwich | NJ | 2026-04-19 | Mesonet | 57 | 42 | 54 | 30 | 100 | 47 | 0.05 | 33 | N | ||
| Greenwich | NJ | 2026-04-05 | Mesonet | 73 | 49 | 63 | 37 | 100 | 58 | 0.33 | 26 | WNW | ||
| Greenwich | NJ | 2026-04-18 | Mesonet | 70 | 52 | 61 | 51 | 98 | 68 | 0.00 | 18 | S | ||
| Greenwich | NJ | 2026-04-17 | Mesonet | 80 | 60 | 63 | 56 | 87 | 45 | 0.00 | 19 | WNW | ||
| Greenwich | NJ | 2026-04-16 | Mesonet | 88 | 60 | 69 | 58 | 95 | 41 | 0.00 | 17 | SSW | ||
| Greenwich | NJ | 2026-04-15 | Mesonet | 89 | 59 | 68 | 58 | 99 | 41 | 0.00 | 16 | WSW | ||
| Greenwich | NJ | 2026-04-14 | Mesonet | 85 | 55 | 63 | 51 | 91 | 42 | 0.00 | 23 | WNW | ||
| Greenwich | NJ | 2026-04-13 | Mesonet | 78 | 52 | 64 | 46 | 95 | 48 | 0.00 | 18 | SW | ||
| Greenwich | NJ | 2026-04-12 | Mesonet | 60 | 37 | 47 | 33 | 94 | 42 | 0.00 | 21 | S | ||
| Greenwich | NJ | 2026-04-11 | Mesonet | 66 | 44 | 53 | 35 | 100 | 33 | 0.00 | 23 | NE | ||
| Greenwich | NJ | 2026-04-10 | Mesonet | 66 | 36 | 52 | 35 | 100 | 56 | 0.00 | 17 | SSW | ||
| Greenwich | NJ | 2026-04-09 | Mesonet | 53 | 28 | 43 | 27 | 99 | 61 | 0.00 | 17 | SSE | ||
| Greenwich | NJ | 2026-04-08 | Mesonet | 49 | 29 | 34 | 16 | 90 | 34 | 0.00 | 16 | SW | ||
| Greenwich | NJ | 2026-04-07 | Mesonet | 55 | 38 | 47 | 16 | 95 | 26 | 0.00 | 31 | NNW | ||
| Greenwich | NJ | 2026-04-06 | Mesonet | 60 | 40 | 45 | 29 | 82 | 38 | 0.00 | 26 | NNW | ||
| Greenwich | NJ | 2026-05-04 | Mesonet | 55 | 49 | 49 | 38 | 87 | 59 | 0.00 | 14 | SW |
data collection created in 0.017542839050293 (queried in 0.011301) rendered in: 5.793571472168E-5

